createdAt,value
2023-09-28T00:01:04.168Z,15.17
2023-09-28T00:03:30.952Z,18.65
2023-09-28T00:05:57.875Z,13.10
2023-09-28T00:08:24.528Z,15.25
2023-09-28T00:10:51.293Z,18.05
2023-09-28T00:13:17.942Z,17.83
2023-09-28T00:15:48.272Z,14.30
2023-09-28T00:18:15.124Z,14.95
2023-09-28T00:20:41.820Z,16.15
2023-09-28T00:23:08.453Z,17.52
2023-09-28T00:25:35.075Z,15.20
2023-09-28T00:28:02.072Z,15.60
2023-09-28T00:30:28.765Z,17.38
2023-09-28T00:32:57.209Z,21.23
2023-09-28T00:35:24.886Z,16.08
2023-09-28T00:37:53.540Z,17.40
2023-09-28T00:40:28.801Z,15.75
2023-09-28T00:42:57.002Z,16.92
2023-09-28T00:45:25.204Z,15.50
2023-09-28T00:47:53.426Z,14.25
2023-09-28T00:50:22.038Z,15.37
2023-09-28T00:52:54.648Z,16.65
2023-09-28T00:55:22.161Z,16.08
2023-09-28T00:57:49.769Z,14.40
2023-09-28T01:00:20.058Z,15.98
2023-09-28T01:02:54.059Z,15.40
2023-09-28T01:05:21.963Z,15.23
2023-09-28T01:07:49.147Z,14.40
2023-09-28T01:10:21.836Z,14.15
2023-09-28T01:12:49.454Z,15.43
2023-09-28T01:15:16.100Z,16.60
2023-09-28T01:17:43.602Z,14.30
2023-09-28T01:20:18.645Z,14.68
2023-09-28T01:22:50.855Z,13.35
2023-09-28T01:25:20.394Z,14.55
2023-09-28T01:27:48.032Z,13.67
2023-09-28T01:30:15.498Z,14.75
2023-09-28T01:32:43.489Z,18.38
2023-09-28T01:35:12.920Z,14.48
2023-09-28T01:37:52.010Z,16.85
2023-09-28T01:40:20.302Z,25.87
2023-09-28T01:42:46.935Z,20.60
2023-09-28T01:45:13.705Z,19.33
2023-09-28T01:47:40.487Z,23.30
2023-09-28T01:50:07.894Z,21.63
2023-09-28T01:52:34.599Z,24.67
2023-09-28T01:55:01.441Z,28.95
2023-09-28T01:57:28.047Z,45.00
2023-09-28T01:59:54.660Z,38.47
2023-09-28T02:02:22.664Z,31.33
2023-09-28T02:04:49.462Z,49.47
2023-09-28T02:07:16.156Z,33.63
2023-09-28T02:09:45.699Z,23.75
2023-09-28T02:12:13.380Z,20.85
2023-09-28T02:14:41.116Z,22.58
2023-09-28T02:17:07.687Z,24.67
2023-09-28T02:19:34.296Z,22.65
2023-09-28T02:22:00.894Z,21.70
2023-09-28T02:24:27.753Z,26.90
2023-09-28T02:26:55.172Z,19.50
2023-09-28T02:29:21.859Z,19.70
2023-09-28T02:31:49.900Z,23.88
2023-09-28T02:34:16.647Z,27.25
2023-09-28T02:36:43.736Z,25.33
2023-09-28T02:39:10.883Z,29.90
2023-09-28T02:41:37.585Z,25.43
2023-09-28T02:44:05.330Z,18.88
2023-09-28T02:46:33.830Z,21.17
2023-09-28T02:49:01.056Z,19.50
2023-09-28T02:51:27.641Z,23.23
2023-09-28T02:53:54.446Z,20.40
2023-09-28T02:56:21.232Z,18.73
2023-09-28T02:58:48.162Z,30.23
2023-09-28T03:01:14.831Z,39.22
2023-09-28T03:03:41.551Z,34.08
2023-09-28T03:06:08.366Z,39.47
2023-09-28T03:08:34.985Z,33.28
2023-09-28T03:11:01.640Z,60.97
2023-09-28T03:13:28.343Z,35.58
2023-09-28T03:15:56.228Z,33.17
2023-09-28T03:18:23.140Z,36.53
2023-09-28T03:20:50.152Z,38.60
2023-09-28T03:23:16.940Z,44.17
2023-09-28T03:25:44.357Z,60.10
2023-09-28T03:28:11.090Z,47.00
2023-09-28T03:30:37.690Z,38.53
2023-09-28T03:33:04.592Z,43.88
2023-09-28T03:35:31.895Z,46.00
2023-09-28T03:38:00.163Z,40.13
2023-09-28T03:40:36.246Z,45.80
2023-09-28T03:43:03.320Z,29.50
2023-09-28T03:45:29.982Z,20.15
2023-09-28T03:47:56.645Z,22.17
2023-09-28T03:50:24.971Z,24.80
2023-09-28T03:52:52.561Z,37.40
2023-09-28T03:55:23.450Z,37.40
2023-09-28T03:57:50.492Z,24.25
2023-09-28T04:00:19.243Z,42.65
2023-09-28T04:02:54.401Z,38.70
2023-09-28T04:05:22.589Z,66.15
2023-09-28T04:07:49.442Z,30.67
2023-09-28T04:10:16.409Z,40.22
2023-09-28T04:12:43.451Z,24.92
2023-09-28T04:15:10.965Z,30.60
2023-09-28T04:17:40.634Z,83.28
2023-09-28T04:20:11.480Z,134.23
2023-09-28T04:22:41.303Z,98.18
2023-09-28T04:25:08.721Z,86.68
2023-09-28T04:27:35.765Z,91.03
2023-09-28T04:30:02.512Z,82.22
2023-09-28T04:32:29.544Z,105.60
2023-09-28T04:34:56.619Z,114.95
2023-09-28T04:37:24.876Z,106.72
2023-09-28T04:39:51.609Z,56.67
2023-09-28T04:42:18.197Z,116.97
2023-09-28T04:44:48.096Z,81.03
2023-09-28T04:47:15.928Z,85.03
2023-09-28T04:49:42.914Z,107.40
2023-09-28T04:52:13.355Z,48.40
2023-09-28T04:54:40.805Z,72.22
2023-09-28T04:57:07.608Z,83.30
2023-09-28T04:59:42.558Z,150.02
2023-09-28T05:02:10.058Z,109.18
2023-09-28T05:04:36.956Z,108.68
2023-09-28T05:07:05.408Z,59.70
2023-09-28T05:09:32.692Z,58.57
2023-09-28T05:12:01.735Z,60.65
2023-09-28T05:14:28.725Z,54.17
2023-09-28T05:16:56.174Z,56.90
2023-09-28T05:19:23.225Z,36.67
2023-09-28T05:21:50.825Z,40.13
2023-09-28T05:24:17.734Z,59.92
2023-09-28T05:26:47.263Z,59.58
2023-09-28T05:29:13.913Z,40.78
2023-09-28T05:31:40.603Z,64.40
2023-09-28T05:34:07.896Z,55.13
2023-09-28T05:36:34.794Z,60.05
2023-09-28T05:39:02.251Z,76.47
2023-09-28T05:41:28.909Z,56.70
2023-09-28T05:43:55.825Z,71.60
2023-09-28T05:46:22.745Z,103.50
2023-09-28T05:48:49.387Z,72.70
2023-09-28T05:51:17.309Z,89.22
2023-09-28T05:53:46.187Z,66.50
2023-09-28T05:56:14.519Z,46.03
2023-09-28T05:58:41.143Z,34.33
2023-09-28T06:01:08.798Z,46.58
2023-09-28T06:03:36.938Z,51.30
2023-09-28T06:06:24.234Z,34.08
2023-09-28T06:08:54.101Z,46.28
2023-09-28T06:11:21.298Z,52.07
2023-09-28T06:14:04.852Z,43.25
2023-09-28T06:16:38.454Z,58.55
2023-09-28T06:19:05.382Z,34.13
2023-09-28T06:21:35.123Z,40.53
2023-09-28T06:24:02.980Z,37.63
2023-09-28T06:26:41.926Z,29.23
2023-09-28T06:29:11.076Z,42.60
2023-09-28T06:31:38.401Z,83.05
2023-09-28T06:34:05.338Z,46.63
2023-09-28T06:39:02.449Z,42.00
2023-09-28T06:41:29.720Z,44.22
2023-09-28T06:43:56.357Z,27.00
2023-09-28T06:46:23.181Z,25.77
2023-09-28T06:48:53.409Z,33.80
2023-09-28T06:51:23.770Z,30.13
2023-09-28T06:53:50.943Z,31.50
2023-09-28T06:56:17.802Z,47.55
2023-09-28T06:58:45.364Z,38.15
2023-09-28T07:01:12.132Z,28.47
2023-09-28T07:03:39.056Z,25.88
2023-09-28T07:06:06.945Z,32.97
2023-09-28T07:08:33.953Z,26.00
2023-09-28T07:11:01.223Z,26.67
2023-09-28T07:13:28.446Z,24.00
2023-09-28T07:15:58.590Z,24.63
2023-09-28T07:18:27.610Z,26.85
2023-09-28T07:20:57.199Z,23.90
2023-09-28T07:23:24.000Z,24.98
2023-09-28T07:25:52.790Z,21.80
2023-09-28T07:28:19.637Z,20.23
2023-09-28T07:30:46.435Z,20.70
2023-09-28T07:33:17.436Z,21.27
2023-09-28T07:35:45.651Z,22.30
2023-09-28T07:38:14.982Z,18.53
2023-09-28T07:43:11.342Z,18.60
2023-09-28T07:45:38.676Z,18.77
2023-09-28T07:48:06.868Z,16.92
2023-09-28T07:50:33.766Z,16.27
2023-09-28T07:53:00.614Z,17.77
2023-09-28T07:55:30.658Z,15.38
2023-09-28T07:58:02.913Z,14.73
2023-09-28T08:00:40.046Z,15.65
2023-09-28T08:03:06.849Z,13.40
2023-09-28T08:05:33.554Z,15.05
2023-09-28T08:08:11.727Z,16.50
2023-09-28T08:10:44.065Z,15.52
2023-09-28T08:13:13.391Z,16.10
2023-09-28T08:15:42.328Z,14.63
2023-09-28T08:18:10.114Z,16.17
2023-09-28T08:20:37.301Z,14.48
2023-09-28T08:23:07.166Z,15.38
2023-09-28T08:25:36.193Z,14.05
2023-09-28T08:28:03.023Z,15.40
2023-09-28T08:30:29.738Z,13.02
2023-09-28T08:32:56.437Z,14.02
2023-09-28T08:35:23.543Z,13.73
2023-09-28T08:37:50.273Z,12.80
2023-09-28T08:40:17.070Z,14.30
2023-09-28T08:42:47.938Z,15.82
2023-09-28T08:45:18.096Z,14.50
2023-09-28T08:47:51.748Z,13.25
2023-09-28T08:50:27.735Z,13.13
2023-09-28T08:52:56.076Z,12.50
2023-09-28T08:55:23.448Z,12.38
2023-09-28T08:57:50.824Z,14.30
2023-09-28T09:00:24.055Z,11.93
2023-09-28T09:02:53.116Z,12.60
2023-09-28T09:05:22.237Z,12.33
2023-09-28T09:07:53.030Z,12.20
2023-09-28T09:10:21.994Z,13.27
2023-09-28T09:12:48.962Z,11.95
2023-09-28T09:15:15.715Z,11.20
2023-09-28T09:17:43.271Z,11.37
2023-09-28T09:20:11.174Z,11.70
2023-09-28T09:22:49.563Z,11.02
2023-09-28T09:25:25.728Z,10.18
2023-09-28T09:27:52.801Z,10.65
2023-09-28T09:30:24.603Z,10.23
2023-09-28T09:32:52.104Z,10.38
2023-09-28T09:35:24.836Z,10.25
2023-09-28T09:37:52.179Z,14.88
2023-09-28T09:40:19.452Z,11.35
2023-09-28T09:42:49.546Z,10.20
2023-09-28T09:45:16.892Z,10.50
2023-09-28T09:47:48.964Z,10.15
2023-09-28T09:50:17.782Z,9.55
2023-09-28T09:52:46.194Z,10.02
2023-09-28T09:55:13.497Z,11.37
2023-09-28T09:57:43.854Z,9.98
2023-09-28T10:00:17.826Z,9.70
2023-09-28T10:02:45.686Z,9.60
2023-09-28T10:05:19.407Z,9.98
2023-09-28T10:07:48.975Z,10.03
2023-09-28T10:10:16.025Z,9.70
2023-09-28T10:12:42.921Z,9.55
2023-09-28T10:15:10.904Z,10.25
2023-09-28T10:17:38.266Z,10.00
2023-09-28T10:20:08.371Z,13.73
2023-09-28T10:22:35.803Z,9.23
2023-09-28T10:25:02.872Z,8.38
2023-09-28T10:27:31.578Z,7.95
2023-09-28T10:30:21.178Z,8.38
2023-09-28T10:32:51.817Z,8.53
2023-09-28T10:35:22.213Z,9.27
2023-09-28T10:38:19.361Z,7.88
2023-09-28T10:40:51.651Z,9.02
2023-09-28T10:43:31.964Z,7.97
2023-09-28T10:46:02.549Z,7.10
2023-09-28T10:48:33.053Z,7.40
2023-09-28T10:50:59.811Z,7.72
2023-09-28T10:53:26.465Z,7.88
2023-09-28T10:55:53.172Z,8.68
2023-09-28T10:58:20.489Z,10.27
2023-09-28T11:00:47.117Z,7.82
2023-09-28T11:03:13.805Z,7.97
2023-09-28T11:05:41.961Z,6.95
2023-09-28T11:08:10.089Z,8.07
2023-09-28T11:10:36.734Z,7.40
2023-09-28T11:13:03.932Z,7.00
2023-09-28T11:15:31.301Z,7.22
2023-09-28T11:17:57.901Z,7.22
2023-09-28T11:20:25.782Z,7.00
2023-09-28T11:22:57.448Z,7.10
2023-09-28T11:25:44.768Z,7.10
2023-09-28T11:28:12.680Z,7.38
2023-09-28T11:30:39.882Z,6.80
2023-09-28T11:33:07.585Z,6.75
2023-09-28T11:35:35.684Z,5.93
2023-09-28T11:38:07.756Z,5.68
2023-09-28T11:40:34.760Z,6.25
2023-09-28T11:43:02.660Z,6.03
2023-09-28T11:45:30.776Z,7.20
2023-09-28T11:47:57.978Z,6.73
2023-09-28T11:50:29.013Z,7.55
2023-09-28T11:52:56.682Z,7.43
2023-09-28T11:55:26.345Z,7.25
2023-09-28T11:57:56.808Z,9.70
2023-09-28T12:00:25.885Z,5.97
2023-09-28T12:02:53.709Z,6.97
2023-09-28T12:05:21.498Z,5.63
2023-09-28T12:07:48.399Z,7.38
2023-09-28T12:10:19.327Z,7.07
2023-09-28T12:12:46.064Z,7.50
2023-09-28T12:15:12.743Z,6.35
2023-09-28T12:17:41.078Z,6.85
2023-09-28T12:20:10.710Z,7.30
2023-09-28T12:22:37.601Z,8.93
2023-09-28T12:25:06.395Z,6.97
2023-09-28T12:27:33.711Z,7.35
2023-09-28T12:30:01.147Z,6.93
2023-09-28T12:32:31.891Z,6.18
2023-09-28T12:34:59.275Z,5.60
2023-09-28T12:37:26.008Z,5.47
2023-09-28T12:39:54.735Z,6.88
2023-09-28T12:42:25.961Z,6.13
2023-09-28T12:44:53.457Z,6.30
2023-09-28T12:47:21.760Z,6.47
2023-09-28T12:49:48.854Z,6.80
2023-09-28T12:52:15.523Z,7.22
2023-09-28T12:54:42.196Z,6.18
2023-09-28T12:57:09.553Z,6.10
2023-09-28T12:59:36.488Z,6.90
2023-09-28T13:02:07.248Z,7.00
2023-09-28T13:04:34.771Z,6.05
2023-09-28T13:07:01.958Z,6.00
2023-09-28T13:09:33.469Z,5.50
2023-09-28T13:12:01.202Z,5.57
2023-09-28T13:14:28.067Z,4.90
2023-09-28T13:16:56.110Z,5.97
2023-09-28T13:19:26.727Z,6.78
2023-09-28T13:22:00.415Z,5.30
2023-09-28T13:24:31.399Z,8.02
2023-09-28T13:27:02.712Z,5.77
2023-09-28T13:29:29.345Z,6.00
2023-09-28T13:31:56.938Z,5.15
2023-09-28T13:34:24.210Z,5.70
2023-09-28T13:36:50.923Z,5.90
2023-09-28T13:39:31.384Z,5.80
2023-09-28T13:42:02.405Z,5.88
2023-09-28T13:44:29.956Z,29.33
2023-09-28T13:46:57.423Z,5.60
2023-09-28T13:49:25.329Z,5.43
2023-09-28T13:51:59.310Z,6.43
2023-09-28T13:54:27.070Z,5.82
2023-09-28T13:57:08.966Z,6.95
2023-09-28T13:59:35.713Z,5.75
2023-09-28T14:02:02.602Z,6.00
2023-09-28T14:04:33.571Z,5.60
2023-09-28T14:07:00.165Z,4.82
2023-09-28T14:09:29.040Z,5.30
2023-09-28T14:11:56.486Z,6.93
2023-09-28T14:14:26.133Z,6.40
2023-09-28T14:16:58.370Z,4.83
2023-09-28T14:19:27.178Z,5.72
2023-09-28T14:21:53.820Z,5.57
2023-09-28T14:24:20.478Z,6.40
2023-09-28T14:26:47.117Z,5.88
2023-09-28T14:29:13.854Z,5.33
2023-09-28T14:31:40.542Z,5.68
2023-09-28T14:34:07.499Z,4.78
2023-09-28T14:36:34.225Z,5.25
2023-09-28T14:39:00.888Z,5.65
2023-09-28T14:41:28.937Z,5.20
2023-09-28T14:43:56.807Z,5.97
2023-09-28T14:46:23.637Z,6.57
2023-09-28T14:48:50.287Z,7.55
2023-09-28T14:51:18.116Z,7.00
2023-09-28T14:53:45.408Z,5.43
2023-09-28T14:56:12.329Z,4.95
2023-09-28T14:58:39.667Z,5.03
2023-09-28T15:01:06.658Z,5.00
2023-09-28T15:03:34.083Z,5.05
2023-09-28T15:06:02.420Z,5.40
2023-09-28T15:08:29.076Z,5.50
2023-09-28T15:10:55.767Z,5.68
2023-09-28T15:13:22.382Z,4.97
2023-09-28T15:15:49.071Z,5.30
2023-09-28T15:18:16.310Z,6.60
2023-09-28T15:20:44.420Z,5.97
2023-09-28T15:23:11.317Z,6.03
2023-09-28T15:25:40.367Z,4.85
2023-09-28T15:28:09.585Z,6.30
2023-09-28T15:30:40.571Z,5.80
2023-09-28T15:33:08.737Z,5.47
2023-09-28T15:35:35.628Z,6.78
2023-09-28T15:38:02.318Z,6.40
2023-09-28T15:40:36.318Z,5.90
2023-09-28T15:43:02.939Z,5.93
2023-09-28T15:45:30.115Z,8.57
2023-09-28T15:47:57.587Z,8.38
2023-09-28T15:50:24.646Z,8.75
2023-09-28T15:52:51.346Z,9.18
2023-09-28T15:55:18.483Z,6.43
2023-09-28T15:57:45.619Z,8.57
2023-09-28T16:00:30.765Z,11.18
2023-09-28T16:03:00.482Z,6.95
2023-09-28T16:05:27.367Z,11.02
2023-09-28T16:07:54.073Z,6.97
2023-09-28T16:10:20.810Z,7.93
2023-09-28T16:12:49.562Z,5.80
2023-09-28T16:15:16.237Z,5.50
2023-09-28T16:17:43.846Z,5.85
2023-09-28T16:20:14.776Z,5.50
2023-09-28T16:22:41.559Z,4.75
2023-09-28T16:25:10.578Z,5.43
2023-09-28T16:27:37.259Z,7.32
2023-09-28T16:30:04.288Z,5.75
2023-09-28T16:32:31.019Z,6.67
2023-09-28T16:34:57.749Z,5.97
2023-09-28T16:37:24.347Z,6.20
2023-09-28T16:39:51.272Z,6.70
2023-09-28T16:42:17.977Z,6.43
2023-09-28T16:44:44.590Z,6.07
2023-09-28T16:47:11.342Z,7.30
2023-09-28T16:49:38.013Z,7.93
2023-09-28T16:52:06.185Z,6.20
2023-09-28T16:54:32.817Z,6.65
2023-09-28T16:56:59.557Z,7.40
2023-09-28T16:59:26.211Z,6.32
2023-09-28T17:01:52.970Z,7.47
2023-09-28T17:04:19.735Z,6.35
2023-09-28T17:06:46.410Z,7.35
2023-09-28T17:09:14.525Z,5.90
2023-09-28T17:11:41.587Z,7.93
2023-09-28T17:14:08.754Z,7.03
2023-09-28T17:16:35.437Z,5.78
2023-09-28T17:19:02.688Z,7.18
2023-09-28T17:21:29.337Z,8.90
2023-09-28T17:23:56.126Z,7.03
2023-09-28T17:26:22.932Z,7.45
2023-09-28T17:28:49.893Z,6.80
2023-09-28T17:31:18.545Z,7.43
2023-09-28T17:33:45.295Z,8.97
2023-09-28T17:36:11.901Z,9.93
2023-09-28T17:38:38.650Z,7.40
2023-09-28T17:41:09.366Z,9.57
2023-09-28T17:43:37.084Z,8.43
2023-09-28T17:46:04.220Z,7.23
2023-09-28T17:48:31.092Z,8.60
2023-09-28T17:50:57.896Z,9.05
2023-09-28T17:53:24.630Z,7.28
2023-09-28T17:55:51.527Z,10.82
2023-09-28T17:58:18.519Z,9.00
2023-09-28T18:00:46.375Z,8.10
2023-09-28T18:03:13.055Z,10.50
2023-09-28T18:05:40.211Z,9.63
2023-09-28T18:08:08.076Z,11.52
2023-09-28T18:10:35.626Z,7.90
2023-09-28T18:13:04.993Z,8.88
2023-09-28T18:15:34.347Z,8.70
2023-09-28T18:18:04.313Z,9.30
2023-09-28T18:20:32.046Z,7.97
2023-09-28T18:22:58.739Z,8.77
2023-09-28T18:25:25.981Z,7.75
2023-09-28T18:27:54.565Z,11.32
2023-09-28T18:30:21.543Z,7.70
2023-09-28T18:32:48.691Z,8.02
2023-09-28T18:35:18.403Z,7.83
2023-09-28T18:37:45.225Z,9.23
2023-09-28T18:40:12.192Z,8.70
2023-09-28T18:42:40.614Z,9.63
2023-09-28T18:45:08.653Z,9.43
2023-09-28T18:47:36.182Z,8.50
2023-09-28T18:50:03.106Z,6.00
2023-09-28T18:52:30.325Z,7.35
2023-09-28T18:54:57.445Z,7.75
2023-09-28T18:57:24.366Z,8.05
2023-09-28T18:59:51.425Z,8.23
2023-09-28T19:02:18.283Z,8.52
2023-09-28T19:04:44.895Z,9.95
2023-09-28T19:07:11.905Z,6.85
2023-09-28T19:09:38.606Z,7.72
2023-09-28T19:12:09.085Z,7.67
2023-09-28T19:14:35.975Z,6.85
2023-09-28T19:17:02.559Z,7.95
2023-09-28T19:19:29.161Z,8.00
2023-09-28T19:21:55.757Z,9.45
2023-09-28T19:24:22.476Z,8.60
2023-09-28T19:26:51.177Z,9.77
2023-09-28T19:29:18.140Z,9.00
2023-09-28T19:31:45.303Z,7.22
2023-09-28T19:34:12.148Z,8.25
2023-09-28T19:36:38.808Z,7.47
2023-09-28T19:39:05.752Z,6.93
2023-09-28T19:41:34.806Z,9.45
2023-09-28T19:44:02.503Z,6.57
2023-09-28T19:46:29.341Z,8.93
2023-09-28T19:48:56.458Z,9.87
2023-09-28T19:51:26.935Z,7.63
2023-09-28T19:53:53.882Z,7.82
2023-09-28T19:56:25.128Z,8.00
2023-09-28T19:58:52.076Z,9.10
2023-09-28T20:01:19.381Z,7.83
2023-09-28T20:03:46.541Z,8.93
2023-09-28T20:06:13.869Z,7.82
2023-09-28T20:08:40.826Z,8.40
2023-09-28T20:11:07.848Z,8.30
2023-09-28T20:13:34.974Z,6.67
2023-09-28T20:16:02.508Z,8.95
2023-09-28T20:18:30.009Z,7.60
2023-09-28T20:20:59.737Z,9.50
2023-09-28T20:23:26.449Z,9.13
2023-09-28T20:25:53.253Z,8.27
2023-09-28T20:28:19.894Z,9.18
2023-09-28T20:30:47.460Z,7.53
2023-09-28T20:33:14.225Z,7.75
2023-09-28T20:35:45.112Z,7.25
2023-09-28T20:38:11.803Z,6.97
2023-09-28T20:40:40.546Z,7.47
2023-09-28T20:43:09.254Z,8.02
2023-09-28T20:45:39.695Z,8.55
2023-09-28T20:48:12.021Z,8.20
2023-09-28T20:50:38.689Z,9.03
2023-09-28T20:53:05.316Z,6.70
2023-09-28T20:55:31.936Z,8.18
2023-09-28T20:57:58.634Z,6.70
2023-09-28T21:00:25.556Z,8.00
2023-09-28T21:02:52.365Z,6.60
2023-09-28T21:05:19.235Z,7.18
2023-09-28T21:07:46.144Z,8.73
2023-09-28T21:10:14.144Z,9.00
2023-09-28T21:12:40.830Z,9.35
2023-09-28T21:15:09.587Z,10.97
2023-09-28T21:17:38.235Z,10.98
2023-09-28T21:20:05.876Z,13.30
2023-09-28T21:22:33.433Z,10.85
2023-09-28T21:25:00.246Z,10.10
2023-09-28T21:27:27.155Z,10.63
2023-09-28T21:29:54.627Z,8.73
2023-09-28T21:32:21.675Z,8.93
2023-09-28T21:34:48.319Z,13.82
2023-09-28T21:37:14.959Z,12.00
2023-09-28T21:39:41.586Z,9.77
2023-09-28T21:42:08.214Z,10.88
2023-09-28T21:44:39.066Z,8.55
2023-09-28T21:47:06.121Z,10.40
2023-09-28T21:49:32.751Z,11.20
2023-09-28T21:51:59.423Z,7.03
2023-09-28T21:54:27.476Z,10.35
2023-09-28T21:56:54.239Z,6.95
2023-09-28T21:59:20.970Z,7.35
2023-09-28T22:01:48.642Z,8.68
2023-09-28T22:04:15.288Z,7.57
2023-09-28T22:06:43.393Z,9.05
2023-09-28T22:09:11.633Z,7.07
2023-09-28T22:11:38.638Z,6.00
2023-09-28T22:14:05.542Z,7.50
2023-09-28T22:16:32.308Z,6.60
2023-09-28T22:18:59.060Z,7.68
2023-09-28T22:21:25.819Z,6.93
2023-09-28T22:23:52.500Z,6.88
2023-09-28T22:26:19.326Z,7.88
2023-09-28T22:28:47.267Z,6.77
2023-09-28T22:31:14.482Z,7.50
2023-09-28T22:33:41.265Z,6.80
2023-09-28T22:36:08.241Z,6.38
2023-09-28T22:38:37.078Z,7.00
2023-09-28T22:41:04.278Z,6.60
2023-09-28T22:43:31.252Z,7.53
2023-09-28T22:45:58.695Z,8.65
2023-09-28T22:48:25.681Z,7.70
2023-09-28T22:50:52.479Z,6.93
2023-09-28T22:53:19.516Z,7.93
2023-09-28T22:55:46.852Z,8.07
2023-09-28T22:58:13.507Z,7.28
2023-09-28T23:00:40.163Z,9.05
2023-09-28T23:03:07.347Z,8.18
2023-09-28T23:05:34.311Z,7.33
2023-09-28T23:08:02.461Z,7.82
2023-09-28T23:10:32.830Z,6.72
2023-09-28T23:12:59.872Z,6.88
2023-09-28T23:15:26.575Z,7.32
2023-09-28T23:17:53.266Z,7.40
2023-09-28T23:20:26.318Z,7.30
2023-09-28T23:22:53.708Z,10.45
2023-09-28T23:25:20.887Z,7.18
2023-09-28T23:27:47.855Z,7.18
2023-09-28T23:30:19.209Z,6.30
2023-09-28T23:32:48.162Z,9.55
2023-09-28T23:35:24.438Z,6.50
2023-09-28T23:37:53.603Z,7.47
2023-09-28T23:40:23.969Z,6.43
2023-09-28T23:42:52.184Z,7.43
2023-09-28T23:45:20.572Z,7.45
2023-09-28T23:47:49.078Z,9.20
2023-09-28T23:50:16.434Z,7.60
2023-09-28T23:52:46.770Z,6.72
2023-09-28T23:55:16.438Z,7.03
2023-09-28T23:57:44.641Z,7.25
